sensor_id;sensor_type;location;lat;lon;timestamp;temperature;humidity
58933;DHT22;44716;51.022;6.818;2024-03-29T00:00:51;22.70;53.20
58933;DHT22;44716;51.022;6.818;2024-03-29T00:03:17;22.70;53.20
58933;DHT22;44716;51.022;6.818;2024-03-29T00:05:42;22.60;53.40
58933;DHT22;44716;51.022;6.818;2024-03-29T00:08:08;22.50;53.50
58933;DHT22;44716;51.022;6.818;2024-03-29T00:10:33;22.50;53.60
58933;DHT22;44716;51.022;6.818;2024-03-29T00:12:59;22.50;53.70
58933;DHT22;44716;51.022;6.818;2024-03-29T00:15:24;22.50;53.80
58933;DHT22;44716;51.022;6.818;2024-03-29T00:17:50;22.40;53.80
58933;DHT22;44716;51.022;6.818;2024-03-29T00:20:16;22.40;54.00
58933;DHT22;44716;51.022;6.818;2024-03-29T00:22:41;22.40;54.20
58933;DHT22;44716;51.022;6.818;2024-03-29T00:25:07;22.30;54.20
58933;DHT22;44716;51.022;6.818;2024-03-29T00:27:33;22.30;54.30
58933;DHT22;44716;51.022;6.818;2024-03-29T00:29:58;22.20;54.40
58933;DHT22;44716;51.022;6.818;2024-03-29T00:32:24;22.20;54.50
58933;DHT22;44716;51.022;6.818;2024-03-29T00:34:50;22.20;54.60
58933;DHT22;44716;51.022;6.818;2024-03-29T00:37:16;22.20;54.70
58933;DHT22;44716;51.022;6.818;2024-03-29T00:39:42;22.20;54.60
58933;DHT22;44716;51.022;6.818;2024-03-29T00:42:07;22.10;54.60
58933;DHT22;44716;51.022;6.818;2024-03-29T00:44:41;22.10;54.70
58933;DHT22;44716;51.022;6.818;2024-03-29T00:47:07;22.10;54.80
58933;DHT22;44716;51.022;6.818;2024-03-29T00:49:32;22.10;54.80
58933;DHT22;44716;51.022;6.818;2024-03-29T00:51:58;22.10;54.80
58933;DHT22;44716;51.022;6.818;2024-03-29T00:54:23;22.10;54.90
58933;DHT22;44716;51.022;6.818;2024-03-29T00:56:49;22.00;54.90
58933;DHT22;44716;51.022;6.818;2024-03-29T00:59:15;22.00;55.00
58933;DHT22;44716;51.022;6.818;2024-03-29T01:01:40;22.00;55.10
58933;DHT22;44716;51.022;6.818;2024-03-29T01:04:06;22.00;55.10
58933;DHT22;44716;51.022;6.818;2024-03-29T01:06:31;22.00;55.20
58933;DHT22;44716;51.022;6.818;2024-03-29T01:08:57;21.90;55.30
58933;DHT22;44716;51.022;6.818;2024-03-29T01:11:22;22.00;55.20
58933;DHT22;44716;51.022;6.818;2024-03-29T01:13:50;21.90;55.40
58933;DHT22;44716;51.022;6.818;2024-03-29T01:16:20;22.00;55.90
58933;DHT22;44716;51.022;6.818;2024-03-29T01:18:45;22.00;55.50
58933;DHT22;44716;51.022;6.818;2024-03-29T01:21:11;21.90;55.50
58933;DHT22;44716;51.022;6.818;2024-03-29T01:23:37;21.90;55.50
58933;DHT22;44716;51.022;6.818;2024-03-29T01:26:04;21.90;55.50
58933;DHT22;44716;51.022;6.818;2024-03-29T01:28:29;21.90;55.50
58933;DHT22;44716;51.022;6.818;2024-03-29T01:30:55;21.80;55.40
58933;DHT22;44716;51.022;6.818;2024-03-29T01:33:20;21.80;55.40
58933;DHT22;44716;51.022;6.818;2024-03-29T01:35:46;21.80;55.40
58933;DHT22;44716;51.022;6.818;2024-03-29T01:38:12;21.80;55.50
58933;DHT22;44716;51.022;6.818;2024-03-29T01:40:37;21.80;55.50
58933;DHT22;44716;51.022;6.818;2024-03-29T01:43:03;21.80;55.50
58933;DHT22;44716;51.022;6.818;2024-03-29T01:45:29;21.80;55.60
58933;DHT22;44716;51.022;6.818;2024-03-29T01:47:55;21.80;55.60
58933;DHT22;44716;51.022;6.818;2024-03-29T01:50:20;21.70;55.60
58933;DHT22;44716;51.022;6.818;2024-03-29T01:52:46;21.80;55.60
58933;DHT22;44716;51.022;6.818;2024-03-29T01:55:12;21.70;55.60
58933;DHT22;44716;51.022;6.818;2024-03-29T01:57:38;21.70;55.70
58933;DHT22;44716;51.022;6.818;2024-03-29T02:00:04;21.60;55.70
58933;DHT22;44716;51.022;6.818;2024-03-29T02:02:31;21.60;55.80
58933;DHT22;44716;51.022;6.818;2024-03-29T02:04:57;21.60;55.90
58933;DHT22;44716;51.022;6.818;2024-03-29T02:07:23;21.60;55.90
58933;DHT22;44716;51.022;6.818;2024-03-29T02:09:49;21.60;56.00
58933;DHT22;44716;51.022;6.818;2024-03-29T02:12:14;21.60;56.00
58933;DHT22;44716;51.022;6.818;2024-03-29T02:14:39;21.60;56.10
58933;DHT22;44716;51.022;6.818;2024-03-29T02:17:06;21.50;56.00
58933;DHT22;44716;51.022;6.818;2024-03-29T02:19:32;21.60;56.10
58933;DHT22;44716;51.022;6.818;2024-03-29T02:21:57;21.50;56.10
58933;DHT22;44716;51.022;6.818;2024-03-29T02:24:24;21.50;56.20
58933;DHT22;44716;51.022;6.818;2024-03-29T02:26:50;21.50;56.30
58933;DHT22;44716;51.022;6.818;2024-03-29T02:29:17;21.50;56.30
58933;DHT22;44716;51.022;6.818;2024-03-29T02:31:42;21.50;56.30
58933;DHT22;44716;51.022;6.818;2024-03-29T02:34:07;21.50;56.30
58933;DHT22;44716;51.022;6.818;2024-03-29T02:36:34;21.40;56.30
58933;DHT22;44716;51.022;6.818;2024-03-29T02:39:00;21.40;56.40
58933;DHT22;44716;51.022;6.818;2024-03-29T02:41:25;21.40;56.50
58933;DHT22;44716;51.022;6.818;2024-03-29T02:43:51;21.40;56.50
58933;DHT22;44716;51.022;6.818;2024-03-29T02:46:17;21.40;56.50
58933;DHT22;44716;51.022;6.818;2024-03-29T02:48:42;21.40;56.60
58933;DHT22;44716;51.022;6.818;2024-03-29T02:51:08;21.30;56.50
58933;DHT22;44716;51.022;6.818;2024-03-29T02:53:33;21.40;56.60
58933;DHT22;44716;51.022;6.818;2024-03-29T02:55:59;21.30;56.60
58933;DHT22;44716;51.022;6.818;2024-03-29T02:58:24;21.30;56.60
58933;DHT22;44716;51.022;6.818;2024-03-29T03:00:50;21.30;56.60
58933;DHT22;44716;51.022;6.818;2024-03-29T03:03:15;21.30;56.60
58933;DHT22;44716;51.022;6.818;2024-03-29T03:05:42;21.30;56.70
58933;DHT22;44716;51.022;6.818;2024-03-29T03:08:07;21.30;56.80
58933;DHT22;44716;51.022;6.818;2024-03-29T03:10:51;21.30;56.80
58933;DHT22;44716;51.022;6.818;2024-03-29T03:13:29;21.20;56.80
58933;DHT22;44716;51.022;6.818;2024-03-29T03:15:55;21.30;56.90
58933;DHT22;44716;51.022;6.818;2024-03-29T03:18:21;21.30;56.80
58933;DHT22;44716;51.022;6.818;2024-03-29T03:23:17;21.30;56.90
58933;DHT22;44716;51.022;6.818;2024-03-29T03:25:43;21.30;56.90
58933;DHT22;44716;51.022;6.818;2024-03-29T03:28:09;21.30;57.00
58933;DHT22;44716;51.022;6.818;2024-03-29T03:30:41;21.20;57.00
58933;DHT22;44716;51.022;6.818;2024-03-29T03:33:06;21.20;57.00
58933;DHT22;44716;51.022;6.818;2024-03-29T03:35:32;21.20;57.10
58933;DHT22;44716;51.022;6.818;2024-03-29T03:37:57;21.20;57.10
58933;DHT22;44716;51.022;6.818;2024-03-29T03:40:23;21.20;57.10
58933;DHT22;44716;51.022;6.818;2024-03-29T03:42:49;21.20;57.10
58933;DHT22;44716;51.022;6.818;2024-03-29T03:45:14;21.20;57.10
58933;DHT22;44716;51.022;6.818;2024-03-29T03:47:40;21.20;57.20
58933;DHT22;44716;51.022;6.818;2024-03-29T03:50:05;21.20;57.20
58933;DHT22;44716;51.022;6.818;2024-03-29T03:52:31;21.20;57.20
58933;DHT22;44716;51.022;6.818;2024-03-29T03:54:56;21.20;57.30
58933;DHT22;44716;51.022;6.818;2024-03-29T03:57:22;21.20;57.30
58933;DHT22;44716;51.022;6.818;2024-03-29T03:59:49;21.20;57.40
58933;DHT22;44716;51.022;6.818;2024-03-29T04:02:14;21.10;57.30
58933;DHT22;44716;51.022;6.818;2024-03-29T04:04:40;21.10;57.40
58933;DHT22;44716;51.022;6.818;2024-03-29T04:07:05;21.10;57.40
58933;DHT22;44716;51.022;6.818;2024-03-29T04:09:31;21.10;57.40
58933;DHT22;44716;51.022;6.818;2024-03-29T04:11:57;21.10;57.50
58933;DHT22;44716;51.022;6.818;2024-03-29T04:14:22;21.10;57.50
58933;DHT22;44716;51.022;6.818;2024-03-29T04:16:48;21.10;57.50
58933;DHT22;44716;51.022;6.818;2024-03-29T04:19:13;21.10;57.50
58933;DHT22;44716;51.022;6.818;2024-03-29T04:21:39;21.10;57.40
58933;DHT22;44716;51.022;6.818;2024-03-29T04:24:04;21.10;57.50
58933;DHT22;44716;51.022;6.818;2024-03-29T04:26:32;21.10;57.60
58933;DHT22;44716;51.022;6.818;2024-03-29T04:28:58;21.10;57.60
58933;DHT22;44716;51.022;6.818;2024-03-29T04:31:23;21.00;57.60
58933;DHT22;44716;51.022;6.818;2024-03-29T04:33:49;21.00;57.60
58933;DHT22;44716;51.022;6.818;2024-03-29T04:36:14;21.00;57.60
58933;DHT22;44716;51.022;6.818;2024-03-29T04:38:40;21.00;57.60
58933;DHT22;44716;51.022;6.818;2024-03-29T04:41:06;21.00;57.70
58933;DHT22;44716;51.022;6.818;2024-03-29T04:43:31;21.00;57.70
58933;DHT22;44716;51.022;6.818;2024-03-29T04:46:04;21.00;57.70
58933;DHT22;44716;51.022;6.818;2024-03-29T04:48:34;21.00;57.80
58933;DHT22;44716;51.022;6.818;2024-03-29T04:50:59;21.00;57.70
58933;DHT22;44716;51.022;6.818;2024-03-29T04:53:25;21.00;57.70
58933;DHT22;44716;51.022;6.818;2024-03-29T04:55:54;21.00;57.80
58933;DHT22;44716;51.022;6.818;2024-03-29T04:58:20;21.00;57.80
58933;DHT22;44716;51.022;6.818;2024-03-29T05:00:45;21.00;57.80
58933;DHT22;44716;51.022;6.818;2024-03-29T05:03:10;21.00;57.80
58933;DHT22;44716;51.022;6.818;2024-03-29T05:05:36;21.00;57.80
58933;DHT22;44716;51.022;6.818;2024-03-29T05:08:01;21.00;57.80
58933;DHT22;44716;51.022;6.818;2024-03-29T05:10:27;20.90;57.80
58933;DHT22;44716;51.022;6.818;2024-03-29T05:12:52;20.90;57.80
58933;DHT22;44716;51.022;6.818;2024-03-29T05:15:19;20.90;57.80
58933;DHT22;44716;51.022;6.818;2024-03-29T05:17:45;20.90;57.90
58933;DHT22;44716;51.022;6.818;2024-03-29T05:20:10;20.90;57.90
58933;DHT22;44716;51.022;6.818;2024-03-29T05:22:36;20.90;57.90
58933;DHT22;44716;51.022;6.818;2024-03-29T05:25:01;20.90;57.90
58933;DHT22;44716;51.022;6.818;2024-03-29T05:27:28;20.90;57.90
58933;DHT22;44716;51.022;6.818;2024-03-29T05:29:54;20.90;58.00
58933;DHT22;44716;51.022;6.818;2024-03-29T05:32:19;20.90;58.00
58933;DHT22;44716;51.022;6.818;2024-03-29T05:34:45;20.90;58.00
58933;DHT22;44716;51.022;6.818;2024-03-29T05:37:12;20.90;58.10
58933;DHT22;44716;51.022;6.818;2024-03-29T05:39:37;20.90;58.10
58933;DHT22;44716;51.022;6.818;2024-03-29T05:42:03;20.90;58.10
58933;DHT22;44716;51.022;6.818;2024-03-29T05:44:28;20.90;58.10
58933;DHT22;44716;51.022;6.818;2024-03-29T05:46:54;20.90;58.10
58933;DHT22;44716;51.022;6.818;2024-03-29T05:49:19;20.90;58.10
58933;DHT22;44716;51.022;6.818;2024-03-29T05:51:45;20.90;58.80
58933;DHT22;44716;51.022;6.818;2024-03-29T05:54:10;20.90;58.10
58933;DHT22;44716;51.022;6.818;2024-03-29T05:56:36;20.90;58.10
58933;DHT22;44716;51.022;6.818;2024-03-29T05:59:01;20.90;58.10
58933;DHT22;44716;51.022;6.818;2024-03-29T06:01:27;20.90;58.20
58933;DHT22;44716;51.022;6.818;2024-03-29T06:03:52;20.90;58.10
58933;DHT22;44716;51.022;6.818;2024-03-29T06:06:20;20.90;58.20
58933;DHT22;44716;51.022;6.818;2024-03-29T06:08:49;20.90;58.20
58933;DHT22;44716;51.022;6.818;2024-03-29T06:11:14;20.90;58.20
58933;DHT22;44716;51.022;6.818;2024-03-29T06:13:40;20.90;58.20
58933;DHT22;44716;51.022;6.818;2024-03-29T06:16:17;20.90;58.30
58933;DHT22;44716;51.022;6.818;2024-03-29T06:19:02;20.90;58.30
58933;DHT22;44716;51.022;6.818;2024-03-29T06:21:27;20.80;58.30
58933;DHT22;44716;51.022;6.818;2024-03-29T06:23:53;20.80;58.30
58933;DHT22;44716;51.022;6.818;2024-03-29T06:26:18;20.80;58.30
58933;DHT22;44716;51.022;6.818;2024-03-29T06:28:44;20.80;58.30
58933;DHT22;44716;51.022;6.818;2024-03-29T06:31:09;20.80;58.30
58933;DHT22;44716;51.022;6.818;2024-03-29T06:33:35;20.80;58.30
58933;DHT22;44716;51.022;6.818;2024-03-29T06:36:00;20.90;58.30
58933;DHT22;44716;51.022;6.818;2024-03-29T06:38:26;20.80;58.30
58933;DHT22;44716;51.022;6.818;2024-03-29T06:40:51;20.80;58.30
58933;DHT22;44716;51.022;6.818;2024-03-29T06:43:17;20.90;58.30
58933;DHT22;44716;51.022;6.818;2024-03-29T06:45:42;20.90;58.40
58933;DHT22;44716;51.022;6.818;2024-03-29T06:48:08;20.90;58.30
58933;DHT22;44716;51.022;6.818;2024-03-29T06:50:34;20.90;59.00
58933;DHT22;44716;51.022;6.818;2024-03-29T06:53:00;20.80;58.30
58933;DHT22;44716;51.022;6.818;2024-03-29T06:55:25;20.90;58.30
58933;DHT22;44716;51.022;6.818;2024-03-29T06:57:51;20.90;58.30
58933;DHT22;44716;51.022;6.818;2024-03-29T07:00:16;20.90;58.30
58933;DHT22;44716;51.022;6.818;2024-03-29T07:02:42;20.90;58.30
58933;DHT22;44716;51.022;6.818;2024-03-29T07:05:08;20.80;58.30
58933;DHT22;44716;51.022;6.818;2024-03-29T07:07:36;20.90;58.40
58933;DHT22;44716;51.022;6.818;2024-03-29T07:10:02;20.90;58.40
58933;DHT22;44716;51.022;6.818;2024-03-29T07:12:28;20.90;58.40
58933;DHT22;44716;51.022;6.818;2024-03-29T07:14:53;20.90;58.50
58933;DHT22;44716;51.022;6.818;2024-03-29T07:17:19;20.80;58.40
58933;DHT22;44716;51.022;6.818;2024-03-29T07:19:44;20.90;58.40
58933;DHT22;44716;51.022;6.818;2024-03-29T07:22:10;20.90;58.50
58933;DHT22;44716;51.022;6.818;2024-03-29T07:24:36;20.90;58.50
58933;DHT22;44716;51.022;6.818;2024-03-29T07:27:01;20.90;58.50
58933;DHT22;44716;51.022;6.818;2024-03-29T07:29:27;20.90;58.50
58933;DHT22;44716;51.022;6.818;2024-03-29T07:31:52;20.90;58.40
58933;DHT22;44716;51.022;6.818;2024-03-29T07:34:18;20.90;58.50
58933;DHT22;44716;51.022;6.818;2024-03-29T07:36:44;20.90;58.50
58933;DHT22;44716;51.022;6.818;2024-03-29T07:39:09;20.90;58.40
58933;DHT22;44716;51.022;6.818;2024-03-29T07:41:35;20.90;58.40
58933;DHT22;44716;51.022;6.818;2024-03-29T07:44:00;20.90;58.40
58933;DHT22;44716;51.022;6.818;2024-03-29T07:46:32;20.90;58.50
58933;DHT22;44716;51.022;6.818;2024-03-29T07:48:58;20.90;58.40
58933;DHT22;44716;51.022;6.818;2024-03-29T07:51:24;20.90;58.40
58933;DHT22;44716;51.022;6.818;2024-03-29T07:53:49;20.90;58.40
58933;DHT22;44716;51.022;6.818;2024-03-29T07:56:15;20.90;58.40
58933;DHT22;44716;51.022;6.818;2024-03-29T07:58:40;20.90;58.40
58933;DHT22;44716;51.022;6.818;2024-03-29T08:01:06;20.90;58.50
58933;DHT22;44716;51.022;6.818;2024-03-29T08:03:32;20.90;58.50
58933;DHT22;44716;51.022;6.818;2024-03-29T08:06:04;20.90;58.50
58933;DHT22;44716;51.022;6.818;2024-03-29T08:08:32;20.90;58.50
58933;DHT22;44716;51.022;6.818;2024-03-29T08:10:58;20.90;58.50
58933;DHT22;44716;51.022;6.818;2024-03-29T08:13:24;20.90;59.10
58933;DHT22;44716;51.022;6.818;2024-03-29T08:15:55;20.90;58.50
58933;DHT22;44716;51.022;6.818;2024-03-29T08:18:23;20.90;58.50
58933;DHT22;44716;51.022;6.818;2024-03-29T08:20:48;20.90;58.50
58933;DHT22;44716;51.022;6.818;2024-03-29T08:23:14;20.90;58.50
58933;DHT22;44716;51.022;6.818;2024-03-29T08:25:39;20.90;58.50
58933;DHT22;44716;51.022;6.818;2024-03-29T08:28:05;20.90;58.50
58933;DHT22;44716;51.022;6.818;2024-03-29T08:30:30;20.90;58.50
58933;DHT22;44716;51.022;6.818;2024-03-29T08:33:03;20.90;58.60
58933;DHT22;44716;51.022;6.818;2024-03-29T08:35:29;20.90;58.60
58933;DHT22;44716;51.022;6.818;2024-03-29T08:37:54;20.90;58.70
58933;DHT22;44716;51.022;6.818;2024-03-29T08:40:20;20.90;58.70
58933;DHT22;44716;51.022;6.818;2024-03-29T08:42:47;20.90;58.70
58933;DHT22;44716;51.022;6.818;2024-03-29T08:45:12;20.90;58.70
58933;DHT22;44716;51.022;6.818;2024-03-29T08:47:38;20.90;58.70
58933;DHT22;44716;51.022;6.818;2024-03-29T08:50:04;20.90;58.70
58933;DHT22;44716;51.022;6.818;2024-03-29T08:52:30;20.90;58.70
58933;DHT22;44716;51.022;6.818;2024-03-29T08:54:55;20.90;58.70
58933;DHT22;44716;51.022;6.818;2024-03-29T08:57:21;20.90;58.70
58933;DHT22;44716;51.022;6.818;2024-03-29T08:59:46;20.90;58.70
58933;DHT22;44716;51.022;6.818;2024-03-29T09:02:12;20.90;58.70
58933;DHT22;44716;51.022;6.818;2024-03-29T09:04:37;21.00;58.70
58933;DHT22;44716;51.022;6.818;2024-03-29T09:07:03;21.00;58.70
58933;DHT22;44716;51.022;6.818;2024-03-29T09:09:31;21.00;58.80
58933;DHT22;44716;51.022;6.818;2024-03-29T09:11:57;21.00;58.80
58933;DHT22;44716;51.022;6.818;2024-03-29T09:14:22;21.00;58.70
58933;DHT22;44716;51.022;6.818;2024-03-29T09:16:49;21.00;58.70
58933;DHT22;44716;51.022;6.818;2024-03-29T09:19:15;21.00;58.80
58933;DHT22;44716;51.022;6.818;2024-03-29T09:21:40;21.00;58.60
58933;DHT22;44716;51.022;6.818;2024-03-29T09:24:06;21.00;58.70
58933;DHT22;44716;51.022;6.818;2024-03-29T09:26:32;21.00;58.90
58933;DHT22;44716;51.022;6.818;2024-03-29T09:28:57;21.00;58.80
58933;DHT22;44716;51.022;6.818;2024-03-29T09:31:23;21.00;58.60
58933;DHT22;44716;51.022;6.818;2024-03-29T09:33:48;21.00;58.70
58933;DHT22;44716;51.022;6.818;2024-03-29T09:36:21;21.00;58.80
58933;DHT22;44716;51.022;6.818;2024-03-29T09:38:51;21.00;58.80
58933;DHT22;44716;51.022;6.818;2024-03-29T09:41:18;21.00;59.00
58933;DHT22;44716;51.022;6.818;2024-03-29T09:43:47;21.00;58.80
58933;DHT22;44716;51.022;6.818;2024-03-29T09:46:13;21.10;58.80
58933;DHT22;44716;51.022;6.818;2024-03-29T09:48:42;21.10;58.80
58933;DHT22;44716;51.022;6.818;2024-03-29T09:51:09;21.10;58.80
58933;DHT22;44716;51.022;6.818;2024-03-29T09:53:35;21.10;58.80
58933;DHT22;44716;51.022;6.818;2024-03-29T09:56:04;21.10;58.80
58933;DHT22;44716;51.022;6.818;2024-03-29T09:58:33;21.00;58.70
58933;DHT22;44716;51.022;6.818;2024-03-29T10:01:00;21.10;58.70
58933;DHT22;44716;51.022;6.818;2024-03-29T10:03:25;21.10;58.80
58933;DHT22;44716;51.022;6.818;2024-03-29T10:05:58;21.00;59.30
58933;DHT22;44716;51.022;6.818;2024-03-29T10:08:27;21.10;58.70
58933;DHT22;44716;51.022;6.818;2024-03-29T10:10:56;21.10;58.90
58933;DHT22;44716;51.022;6.818;2024-03-29T10:13:22;21.10;58.80
58933;DHT22;44716;51.022;6.818;2024-03-29T10:15:54;21.00;59.10
58933;DHT22;44716;51.022;6.818;2024-03-29T10:18:21;21.00;59.60
58933;DHT22;44716;51.022;6.818;2024-03-29T10:20:47;21.10;59.30
58933;DHT22;44716;51.022;6.818;2024-03-29T10:23:23;21.20;59.60
58933;DHT22;44716;51.022;6.818;2024-03-29T10:25:50;21.20;59.60
58933;DHT22;44716;51.022;6.818;2024-03-29T10:28:17;21.20;59.20
58933;DHT22;44716;51.022;6.818;2024-03-29T10:30:43;21.20;59.50
58933;DHT22;44716;51.022;6.818;2024-03-29T10:33:09;21.30;59.80
58933;DHT22;44716;51.022;6.818;2024-03-29T10:35:34;21.30;59.70
58933;DHT22;44716;51.022;6.818;2024-03-29T10:38:02;21.40;59.70
58933;DHT22;44716;51.022;6.818;2024-03-29T10:40:27;21.40;59.30
58933;DHT22;44716;51.022;6.818;2024-03-29T10:42:54;21.40;59.40
58933;DHT22;44716;51.022;6.818;2024-03-29T10:45:20;21.50;59.40
58933;DHT22;44716;51.022;6.818;2024-03-29T10:47:47;21.50;59.30
58933;DHT22;44716;51.022;6.818;2024-03-29T10:50:14;21.50;59.50
58933;DHT22;44716;51.022;6.818;2024-03-29T10:52:40;21.50;59.50
58933;DHT22;44716;51.022;6.818;2024-03-29T10:55:07;21.50;59.30
58933;DHT22;44716;51.022;6.818;2024-03-29T10:57:33;21.50;59.40
58933;DHT22;44716;51.022;6.818;2024-03-29T11:00:03;21.50;59.60
58933;DHT22;44716;51.022;6.818;2024-03-29T11:05:01;21.50;59.40
58933;DHT22;44716;51.022;6.818;2024-03-29T11:07:31;21.50;59.30
58933;DHT22;44716;51.022;6.818;2024-03-29T11:09:59;21.60;59.30
58933;DHT22;44716;51.022;6.818;2024-03-29T11:12:25;21.60;59.30
58933;DHT22;44716;51.022;6.818;2024-03-29T11:14:58;21.60;59.40
58933;DHT22;44716;51.022;6.818;2024-03-29T11:17:28;21.60;59.20
58933;DHT22;44716;51.022;6.818;2024-03-29T11:19:56;21.60;59.30
58933;DHT22;44716;51.022;6.818;2024-03-29T11:22:21;21.60;59.30
58933;DHT22;44716;51.022;6.818;2024-03-29T11:24:47;21.60;59.30
58933;DHT22;44716;51.022;6.818;2024-03-29T11:27:15;21.60;59.70
58933;DHT22;44716;51.022;6.818;2024-03-29T11:29:41;21.60;59.90
58933;DHT22;44716;51.022;6.818;2024-03-29T11:32:08;21.60;59.80
58933;DHT22;44716;51.022;6.818;2024-03-29T11:34:33;21.60;60.00
58933;DHT22;44716;51.022;6.818;2024-03-29T11:37:06;21.60;60.00
58933;DHT22;44716;51.022;6.818;2024-03-29T11:39:33;21.60;59.80
58933;DHT22;44716;51.022;6.818;2024-03-29T11:42:00;21.60;59.70
58933;DHT22;44716;51.022;6.818;2024-03-29T11:44:26;21.60;59.50
58933;DHT22;44716;51.022;6.818;2024-03-29T11:46:51;21.60;59.20
58933;DHT22;44716;51.022;6.818;2024-03-29T11:49:17;21.60;59.10
58933;DHT22;44716;51.022;6.818;2024-03-29T11:51:42;21.60;59.10
58933;DHT22;44716;51.022;6.818;2024-03-29T11:54:08;21.60;59.20
58933;DHT22;44716;51.022;6.818;2024-03-29T11:56:33;21.60;59.40
58933;DHT22;44716;51.022;6.818;2024-03-29T11:58:59;21.60;59.30
58933;DHT22;44716;51.022;6.818;2024-03-29T12:01:27;21.60;59.20
58933;DHT22;44716;51.022;6.818;2024-03-29T12:03:54;21.60;59.20
58933;DHT22;44716;51.022;6.818;2024-03-29T12:06:20;21.60;59.30
58933;DHT22;44716;51.022;6.818;2024-03-29T12:08:45;21.60;59.20
58933;DHT22;44716;51.022;6.818;2024-03-29T12:11:11;21.60;59.10
58933;DHT22;44716;51.022;6.818;2024-03-29T12:13:36;21.60;59.20
58933;DHT22;44716;51.022;6.818;2024-03-29T12:16:02;21.60;59.20
58933;DHT22;44716;51.022;6.818;2024-03-29T12:18:28;21.50;59.30
58933;DHT22;44716;51.022;6.818;2024-03-29T12:20:57;21.60;59.20
58933;DHT22;44716;51.022;6.818;2024-03-29T12:23:22;21.50;59.10
58933;DHT22;44716;51.022;6.818;2024-03-29T12:25:49;21.50;59.20
58933;DHT22;44716;51.022;6.818;2024-03-29T12:28:15;21.50;59.00
58933;DHT22;44716;51.022;6.818;2024-03-29T12:30:46;21.60;59.00
58933;DHT22;44716;51.022;6.818;2024-03-29T12:33:16;21.60;58.90
58933;DHT22;44716;51.022;6.818;2024-03-29T12:35:51;21.60;58.90
58933;DHT22;44716;51.022;6.818;2024-03-29T12:38:20;21.50;58.80
58933;DHT22;44716;51.022;6.818;2024-03-29T12:40:46;21.60;58.80
58933;DHT22;44716;51.022;6.818;2024-03-29T12:43:13;21.60;58.80
58933;DHT22;44716;51.022;6.818;2024-03-29T12:45:39;21.50;58.90
58933;DHT22;44716;51.022;6.818;2024-03-29T12:48:11;21.50;58.90
58933;DHT22;44716;51.022;6.818;2024-03-29T12:50:41;21.50;58.90
58933;DHT22;44716;51.022;6.818;2024-03-29T12:53:07;21.50;58.80
58933;DHT22;44716;51.022;6.818;2024-03-29T12:55:33;21.60;58.80
58933;DHT22;44716;51.022;6.818;2024-03-29T12:58:04;21.60;58.70
58933;DHT22;44716;51.022;6.818;2024-03-29T13:00:33;21.70;58.60
58933;DHT22;44716;51.022;6.818;2024-03-29T13:02:58;21.70;58.50
58933;DHT22;44716;51.022;6.818;2024-03-29T13:05:24;21.80;58.40
58933;DHT22;44716;51.022;6.818;2024-03-29T13:07:50;21.80;58.10
58933;DHT22;44716;51.022;6.818;2024-03-29T13:10:15;21.90;58.10
58933;DHT22;44716;51.022;6.818;2024-03-29T13:12:45;22.00;58.00
58933;DHT22;44716;51.022;6.818;2024-03-29T13:17:40;22.10;57.80
58933;DHT22;44716;51.022;6.818;2024-03-29T13:20:06;22.10;57.60
58933;DHT22;44716;51.022;6.818;2024-03-29T13:22:32;22.20;57.50
58933;DHT22;44716;51.022;6.818;2024-03-29T13:24:57;22.30;57.40
58933;DHT22;44716;51.022;6.818;2024-03-29T13:27:23;22.20;57.10
58933;DHT22;44716;51.022;6.818;2024-03-29T13:29:48;22.30;57.10
58933;DHT22;44716;51.022;6.818;2024-03-29T13:32:14;22.30;57.00
58933;DHT22;44716;51.022;6.818;2024-03-29T13:34:40;22.40;56.90
58933;DHT22;44716;51.022;6.818;2024-03-29T13:37:06;22.50;56.90
58933;DHT22;44716;51.022;6.818;2024-03-29T13:39:31;22.60;56.70
58933;DHT22;44716;51.022;6.818;2024-03-29T13:41:57;22.60;56.50
58933;DHT22;44716;51.022;6.818;2024-03-29T13:44:23;22.70;57.10
58933;DHT22;44716;51.022;6.818;2024-03-29T13:46:48;22.70;56.40
58933;DHT22;44716;51.022;6.818;2024-03-29T13:49:14;22.80;56.30
58933;DHT22;44716;51.022;6.818;2024-03-29T13:51:39;22.70;56.60
58933;DHT22;44716;51.022;6.818;2024-03-29T13:54:05;22.70;56.40
58933;DHT22;44716;51.022;6.818;2024-03-29T13:56:30;22.80;56.30
58933;DHT22;44716;51.022;6.818;2024-03-29T13:58:56;22.80;56.20
58933;DHT22;44716;51.022;6.818;2024-03-29T14:01:21;22.80;56.20
58933;DHT22;44716;51.022;6.818;2024-03-29T14:03:47;22.80;56.20
58933;DHT22;44716;51.022;6.818;2024-03-29T14:06:12;22.90;56.20
58933;DHT22;44716;51.022;6.818;2024-03-29T14:08:38;22.80;56.10
58933;DHT22;44716;51.022;6.818;2024-03-29T14:11:03;22.90;56.10
58933;DHT22;44716;51.022;6.818;2024-03-29T14:13:29;22.90;56.20
58933;DHT22;44716;51.022;6.818;2024-03-29T14:15:54;22.80;56.20
58933;DHT22;44716;51.022;6.818;2024-03-29T14:18:20;22.80;56.20
58933;DHT22;44716;51.022;6.818;2024-03-29T14:20:46;22.70;56.20
58933;DHT22;44716;51.022;6.818;2024-03-29T14:23:11;22.80;56.30
58933;DHT22;44716;51.022;6.818;2024-03-29T14:25:40;22.80;56.10
58933;DHT22;44716;51.022;6.818;2024-03-29T14:28:06;22.80;56.10
58933;DHT22;44716;51.022;6.818;2024-03-29T14:30:31;22.90;56.20
58933;DHT22;44716;51.022;6.818;2024-03-29T14:32:57;22.70;56.50
58933;DHT22;44716;51.022;6.818;2024-03-29T14:35:23;22.70;56.50
58933;DHT22;44716;51.022;6.818;2024-03-29T14:37:49;22.80;56.60
58933;DHT22;44716;51.022;6.818;2024-03-29T14:40:15;22.70;56.70
58933;DHT22;44716;51.022;6.818;2024-03-29T14:42:41;22.60;56.90
58933;DHT22;44716;51.022;6.818;2024-03-29T14:45:07;22.60;57.10
58933;DHT22;44716;51.022;6.818;2024-03-29T14:47:33;22.60;57.40
58933;DHT22;44716;51.022;6.818;2024-03-29T14:49:59;22.60;57.50
58933;DHT22;44716;51.022;6.818;2024-03-29T14:52:24;22.60;57.40
58933;DHT22;44716;51.022;6.818;2024-03-29T14:54:50;22.60;57.40
58933;DHT22;44716;51.022;6.818;2024-03-29T14:57:15;22.60;57.40
58933;DHT22;44716;51.022;6.818;2024-03-29T14:59:44;22.60;57.50
58933;DHT22;44716;51.022;6.818;2024-03-29T15:02:09;22.60;57.30
58933;DHT22;44716;51.022;6.818;2024-03-29T15:04:35;22.70;57.40
58933;DHT22;44716;51.022;6.818;2024-03-29T15:07:02;22.60;57.40
58933;DHT22;44716;51.022;6.818;2024-03-29T15:09:28;22.60;57.50
58933;DHT22;44716;51.022;6.818;2024-03-29T15:11:55;22.60;57.40
58933;DHT22;44716;51.022;6.818;2024-03-29T15:14:20;22.70;57.70
58933;DHT22;44716;51.022;6.818;2024-03-29T15:16:46;22.70;57.20
58933;DHT22;44716;51.022;6.818;2024-03-29T15:19:12;22.70;57.30
58933;DHT22;44716;51.022;6.818;2024-03-29T15:21:38;22.60;57.50
58933;DHT22;44716;51.022;6.818;2024-03-29T15:24:05;22.60;57.50
58933;DHT22;44716;51.022;6.818;2024-03-29T15:26:31;22.60;57.50
58933;DHT22;44716;51.022;6.818;2024-03-29T15:28:58;22.50;57.60
58933;DHT22;44716;51.022;6.818;2024-03-29T15:31:40;22.50;57.60